Terminal Aerodrome Forecast
Issued by NWS

Home | Current Version | Previous Version | Text Only | Print | Product List | Glossary On
Versions: 1 2 3 4 5 6 7 8 9 10 11 12 13 14 15 16 17 18 19 20 21 22 23 24 25 26 27 28 29 30 31 32 33 34 35 36 37 38 39 40 41 42 43 44 45 46 47 48 49 50
000
FTUS43 KLOT 010500
TAFGYY
TAF
KGYY 010539Z 0106/0206 11006KT P6SM SCT015 OVC020
     FM010800 12006KT P6SM SCT015
     FM011500 13010KT P6SM FEW025 SCT250
     FM020100 15008KT P6SM SCT150 BKN250
     FM020500 16007KT P6SM VCSH SCT050 BKN120=

USA.gov is the U.S. government's official web portal to all federal, state and local government web resources and services.